Time;durP1;ratioP1;P1;durP2;ratioP2;P2;SDS_P1;SDS_P2;PMS_P1;PMS_P2;Temp;Humidity;BMP_temperature;BMP_pressure;BME280_temperature;BME280_humidity;BME280_pressure;Samples;Min_cycle;Max_cycle;Signal;HPM_P1;HPM_P2
2022/01/03 00:00:41;;;;;;;4.40;2.73;;;13.50;99.90;;;;;;5009785;28;20473;-57
2022/01/03 00:03:10;;;;;;;3.60;2.30;;;13.40;99.90;;;;;;5009189;28;20454;-58
2022/01/03 00:05:36;;;;;;;5.40;2.17;;;13.40;99.90;;;;;;5009010;28;20455;-59
2022/01/03 00:08:04;;;;;;;4.40;2.67;;;13.40;99.90;;;;;;5011216;28;20454;-59
2022/01/03 00:10:29;;;;;;;7.70;2.17;;;13.40;99.90;;;;;;5004197;28;20440;-59
2022/01/03 00:12:55;;;;;;;5.47;2.43;;;13.40;99.90;;;;;;5012410;28;20501;-56
2022/01/03 00:15:23;;;;;;;7.03;2.93;;;13.40;99.90;;;;;;5012693;28;20460;-57
2022/01/03 00:17:48;;;;;;;5.70;2.80;;;13.30;99.90;;;;;;5012785;28;20184;-58
2022/01/03 00:20:15;;;;;;;4.63;2.40;;;13.30;99.90;;;;;;5004919;28;20445;-56
2022/01/03 00:22:52;;;;;;;4.57;1.80;;;13.30;99.90;;;;;;5007546;28;20185;-54
2022/01/03 00:25:20;;;;;;;5.30;2.00;;;13.30;99.90;;;;;;5006761;28;20458;-57
2022/01/03 00:28:11;;;;;;;6.00;2.57;;;13.40;99.90;;;;;;5009961;28;20518;-55
2022/01/03 00:30:40;;;;;;;4.13;2.10;;;13.50;99.90;;;;;;5006949;28;20535;-58
2022/01/03 00:33:06;;;;;;;5.30;2.03;;;13.60;99.90;;;;;;5005522;28;20494;-58
2022/01/03 00:35:37;;;;;;;3.77;2.00;;;13.70;99.90;;;;;;5016272;28;20461;-58
2022/01/03 00:38:02;;;;;;;9.30;2.00;;;13.70;99.90;;;;;;5000832;28;20455;-58
2022/01/03 00:40:29;;;;;;;11.47;2.03;;;13.80;99.90;;;;;;5002589;28;20447;-56
2022/01/03 00:42:54;;;;;;;2.90;1.70;;;13.80;99.90;;;;;;5002969;28;20193;-58
2022/01/03 00:45:20;;;;;;;2.17;1.70;;;13.90;99.90;;;;;;5003203;28;20478;-55
2022/01/03 00:47:47;;;;;;;2.67;1.50;;;13.90;99.90;;;;;;5007078;28;20193;-58
2022/01/03 00:50:17;;;;;;;4.67;1.67;;;13.90;99.90;;;;;;5003885;28;20196;-58
2022/01/03 00:52:44;;;;;;;8.20;2.30;;;13.90;99.90;;;;;;5009782;28;20525;-57
2022/01/03 00:55:10;;;;;;;3.70;1.60;;;13.90;99.90;;;;;;5009888;28;20466;-56
2022/01/03 00:57:57;;;;;;;3.27;2.03;;;13.90;99.90;;;;;;5013313;28;20443;-57
2022/01/03 01:00:23;;;;;;;9.70;2.33;;;13.90;99.90;;;;;;5014935;28;20479;-57
2022/01/03 01:03:04;;;;;;;8.77;2.10;;;13.90;99.90;;;;;;5011224;28;20565;-58
2022/01/03 01:05:30;;;;;;;3.80;1.97;;;13.90;99.90;;;;;;5005073;28;20279;-58
2022/01/03 01:07:57;;;;;;;6.83;1.90;;;13.90;99.90;;;;;;5013042;28;20447;-57
2022/01/03 01:10:27;;;;;;;5.53;2.10;;;13.90;99.90;;;;;;5011719;28;20949;-57
2022/01/03 01:12:54;;;;;;;5.30;1.93;;;13.90;99.90;;;;;;5006596;28;21116;-56
2022/01/03 01:15:20;;;;;;;6.00;1.83;;;13.90;99.90;;;;;;5003189;28;20478;-57
2022/01/03 01:17:46;;;;;;;4.27;1.97;;;13.90;99.90;;;;;;5003867;28;20999;-57
2022/01/03 01:20:16;;;;;;;3.07;1.47;;;13.90;99.90;;;;;;5006364;28;20192;-58
2022/01/03 01:22:43;;;;;;;6.50;2.17;;;13.90;99.90;;;;;;5012930;28;20443;-55
2022/01/03 01:27:56;;;;;;;7.50;2.07;;;13.90;99.90;;;;;;5001088;28;20443;-57
2022/01/03 01:30:25;;;;;;;2.63;1.80;;;13.90;99.90;;;;;;5007105;28;20430;-58
2022/01/03 01:33:15;;;;;;;5.43;1.77;;;14.00;99.90;;;;;;5008237;28;20816;-57
2022/01/03 01:35:48;;;;;;;6.00;1.90;;;13.90;99.90;;;;;;4996735;28;20467;-56
2022/01/03 01:38:19;;;;;;;7.13;2.40;;;13.90;99.90;;;;;;4997809;28;20444;-58
2022/01/03 01:40:46;;;;;;;7.43;4.43;;;13.90;99.90;;;;;;5010499;28;20450;-58
2022/01/03 01:43:14;;;;;;;4.90;2.30;;;13.90;99.90;;;;;;5016249;28;20948;-57
2022/01/03 01:45:42;;;;;;;5.47;1.80;;;13.90;99.90;;;;;;5022008;28;20566;-59
2022/01/03 01:48:11;;;;;;;3.20;1.60;;;13.90;99.90;;;;;;5020523;28;20873;-58
2022/01/03 01:50:40;;;;;;;5.57;2.40;;;13.90;99.90;;;;;;5012409;28;20444;-58
2022/01/03 01:53:06;;;;;;;4.20;1.80;;;13.90;99.90;;;;;;5010797;28;20859;-58
2022/01/03 01:55:32;;;;;;;5.07;2.10;;;13.90;99.90;;;;;;5014105;28;20456;-59
2022/01/03 01:58:05;;;;;;;11.43;2.50;;;13.90;99.90;;;;;;5017612;28;20451;-57
2022/01/03 02:00:34;;;;;;;5.17;1.80;;;13.90;99.90;;;;;;5010785;28;20268;-57
2022/01/03 02:03:13;;;;;;;4.17;1.97;;;13.80;99.90;;;;;;5008926;28;20829;-58
2022/01/03 02:05:42;;;;;;;9.50;2.27;;;13.80;99.90;;;;;;5014054;28;20493;-57
2022/01/03 02:08:12;;;;;;;13.13;2.53;;;13.80;99.90;;;;;;5011607;28;20450;-56
2022/01/03 02:10:41;;;;;;;3.30;2.23;;;13.80;99.90;;;;;;5009045;28;20458;-57
2022/01/03 02:13:07;;;;;;;4.43;1.90;;;13.80;99.90;;;;;;5011240;28;20985;-58
2022/01/03 02:15:36;;;;;;;5.13;2.43;;;13.80;99.90;;;;;;5006762;28;20462;-58
2022/01/03 02:18:02;;;;;;;3.40;1.70;;;13.80;99.90;;;;;;5014217;28;20426;-54
2022/01/03 02:20:29;;;;;;;8.67;2.37;;;13.80;99.90;;;;;;5010308;28;20743;-56
2022/01/03 02:22:55;;;;;;;3.43;2.00;;;13.80;99.90;;;;;;5005878;28;20436;-56
2022/01/03 02:25:22;;;;;;;9.17;2.20;;;13.80;99.90;;;;;;5006799;28;20463;-55
2022/01/03 02:27:50;;;;;;;8.00;2.33;;;13.70;99.90;;;;;;5009680;28;20439;-55
2022/01/03 02:30:23;;;;;;;12.43;2.73;;;13.70;99.90;;;;;;5009643;28;20443;-57
2022/01/03 02:32:50;;;;;;;10.43;2.40;;;13.70;99.90;;;;;;5006780;28;20439;-57
2022/01/03 02:35:16;;;;;;;7.83;2.00;;;13.70;99.90;;;;;;5013445;28;20478;-56
2022/01/03 02:37:45;;;;;;;5.40;2.10;;;13.70;99.90;;;;;;5009524;28;20450;-57
2022/01/03 02:40:12;;;;;;;8.00;2.70;;;13.70;99.90;;;;;;5008977;28;20446;-57
2022/01/03 02:42:38;;;;;;;7.40;2.20;;;13.70;99.90;;;;;;5009429;28;20521;-57
2022/01/03 02:45:12;;;;;;;7.43;2.20;;;13.70;99.90;;;;;;5009809;28;21002;-58
2022/01/03 02:47:40;;;;;;;4.20;1.70;;;13.70;99.90;;;;;;5012843;28;20438;-57
2022/01/03 02:50:09;;;;;;;6.17;2.00;;;13.70;99.90;;;;;;5015154;28;20462;-57
2022/01/03 02:52:35;;;;;;;5.80;2.13;;;13.60;99.90;;;;;;5011165;28;20952;-56
2022/01/03 02:55:02;;;;;;;5.53;2.17;;;13.60;99.90;;;;;;5004748;28;20943;-54
2022/01/03 02:57:38;;;;;;;9.93;2.47;;;13.60;99.90;;;;;;5005340;28;20526;-58
2022/01/03 03:00:07;;;;;;;6.70;2.23;;;13.60;99.90;;;;;;5010801;28;20522;-57
2022/01/03 03:02:33;;;;;;;8.13;2.10;;;13.60;99.90;;;;;;5009613;28;20869;-57
2022/01/03 03:05:01;;;;;;;7.23;2.10;;;13.60;99.90;;;;;;5009967;28;20489;-57
2022/01/03 03:07:29;;;;;;;5.20;2.10;;;13.60;99.90;;;;;;5013716;28;20442;-57
2022/01/03 03:09:56;;;;;;;6.57;2.20;;;13.50;99.90;;;;;;5009379;28;20485;-57
2022/01/03 03:12:23;;;;;;;9.60;2.00;;;13.50;99.90;;;;;;5011983;28;20440;-58
2022/01/03 03:14:49;;;;;;;4.00;2.23;;;13.50;99.90;;;;;;5016171;28;20471;-56
2022/01/03 03:17:18;;;;;;;9.60;2.93;;;13.50;99.90;;;;;;5007128;28;20563;-57
2022/01/03 03:19:50;;;;;;;6.53;2.87;;;13.50;99.90;;;;;;5007940;28;20817;-54
2022/01/03 03:22:17;;;;;;;5.77;2.50;;;13.40;99.90;;;;;;5004882;28;20451;-57
2022/01/03 03:24:42;;;;;;;5.20;1.93;;;13.50;99.90;;;;;;5010220;28;20471;-55
2022/01/03 03:27:12;;;;;;;7.73;2.60;;;13.50;99.90;;;;;;5010397;28;20921;-54
2022/01/03 03:29:45;;;;;;;4.50;2.50;;;13.40;99.90;;;;;;5007078;28;20189;-57
2022/01/03 03:32:11;;;;;;;3.43;2.10;;;13.40;99.90;;;;;;5005927;28;20447;-56
2022/01/03 03:34:36;;;;;;;7.13;2.60;;;13.40;99.90;;;;;;5007000;28;20749;-57
2022/01/03 03:37:02;;;;;;;4.50;1.93;;;13.40;99.90;;;;;;5009435;28;20211;-57
2022/01/03 03:39:28;;;;;;;3.03;2.00;;;13.40;99.90;;;;;;5007980;28;20181;-55
2022/01/03 03:41:53;;;;;;;6.50;2.20;;;13.30;99.90;;;;;;5009148;28;20571;-57
2022/01/03 03:44:19;;;;;;;6.80;2.00;;;13.40;99.90;;;;;;5004813;28;20211;-57
2022/01/03 03:46:44;;;;;;;11.93;2.30;;;13.30;99.90;;;;;;5007678;28;20193;-57
2022/01/03 03:49:10;;;;;;;6.13;2.63;;;13.30;99.90;;;;;;5005327;28;20203;-57
2022/01/03 03:51:38;;;;;;;4.83;2.20;;;13.30;99.90;;;;;;5011112;28;20285;-58
2022/01/03 03:54:04;;;;;;;2.83;1.97;;;13.20;99.90;;;;;;5004839;28;20215;-56
2022/01/03 03:56:30;;;;;;;5.77;2.50;;;13.20;99.90;;;;;;5004334;28;20837;-58
2022/01/03 03:58:56;;;;;;;5.90;2.50;;;13.20;99.90;;;;;;5006197;28;20453;-56
2022/01/03 04:01:22;;;;;;;5.90;2.03;;;13.20;99.90;;;;;;5009400;28;20436;-57
2022/01/03 04:03:47;;;;;;;3.97;2.00;;;13.20;99.90;;;;;;5015744;28;20303;-55
2022/01/03 04:06:13;;;;;;;8.90;2.07;;;13.10;99.90;;;;;;5012127;28;20753;-56
2022/01/03 04:08:38;;;;;;;6.17;2.57;;;13.10;99.90;;;;;;5006987;28;20185;-57
2022/01/03 04:11:04;;;;;;;6.50;2.27;;;13.10;99.90;;;;;;5007651;28;20196;-58
2022/01/03 04:13:30;;;;;;;5.27;2.53;;;13.20;99.90;;;;;;5007957;28;20583;-57
2022/01/03 04:15:55;;;;;;;5.80;2.03;;;13.10;99.90;;;;;;5004748;28;20219;-53
2022/01/03 04:18:21;;;;;;;9.30;2.43;;;13.10;99.90;;;;;;5007367;28;20327;-57
2022/01/03 04:20:46;;;;;;;4.20;2.63;;;13.10;99.90;;;;;;5009288;28;20193;-57
2022/01/03 04:23:13;;;;;;;6.40;1.60;;;13.00;99.90;;;;;;5011707;28;20588;-57
2022/01/03 04:25:38;;;;;;;6.40;3.40;;;12.90;99.90;;;;;;5009207;28;20236;-58
2022/01/03 04:28:04;;;;;;;7.43;2.47;;;12.80;99.90;;;;;;5015779;28;20996;-57
2022/01/03 04:30:30;;;;;;;6.73;1.90;;;12.80;99.90;;;;;;5014641;28;20279;-56
2022/01/03 04:32:56;;;;;;;6.97;2.43;;;12.70;99.90;;;;;;5009887;28;20540;-58
2022/01/03 04:35:21;;;;;;;5.27;1.87;;;12.50;99.90;;;;;;5009771;28;20208;-55
2022/01/03 04:37:47;;;;;;;4.43;1.80;;;12.30;99.90;;;;;;5013900;28;20221;-57
2022/01/03 04:40:13;;;;;;;3.70;1.50;;;12.20;99.90;;;;;;5010398;28;20262;-57
2022/01/03 04:42:38;;;;;;;5.60;1.70;;;12.10;99.90;;;;;;5011069;28;20805;-56
2022/01/03 04:45:05;;;;;;;6.10;1.87;;;12.20;99.90;;;;;;5010664;28;21337;-58
2022/01/03 04:47:30;;;;;;;4.53;1.63;;;12.20;99.90;;;;;;5011697;28;20279;-58
2022/01/03 04:49:56;;;;;;;2.70;1.30;;;12.10;99.90;;;;;;5010823;28;20451;-58
2022/01/03 04:52:22;;;;;;;4.50;1.80;;;12.10;99.90;;;;;;5013703;28;20193;-56
2022/01/03 04:54:47;;;;;;;8.13;1.70;;;12.10;99.90;;;;;;5011168;28;20290;-56
2022/01/03 04:57:13;;;;;;;5.20;1.90;;;12.00;99.90;;;;;;5007698;28;20603;-57
2022/01/03 04:59:38;;;;;;;3.20;1.40;;;12.00;99.90;;;;;;5010438;28;20192;-55
2022/01/03 05:02:05;;;;;;;4.47;1.60;;;11.90;99.90;;;;;;5008605;28;20672;-53
2022/01/03 05:04:30;;;;;;;5.03;1.63;;;11.90;99.90;;;;;;5005649;28;20208;-55
2022/01/03 05:06:56;;;;;;;6.63;2.53;;;12.00;99.90;;;;;;5015583;28;20458;-57
2022/01/03 05:09:22;;;;;;;11.13;2.50;;;11.90;99.90;;;;;;5012661;28;20216;-57
2022/01/03 05:11:48;;;;;;;8.17;2.27;;;11.90;99.90;;;;;;5013277;28;20561;-56
2022/01/03 05:14:13;;;;;;;5.00;1.63;;;12.00;99.90;;;;;;5013399;28;20217;-56
2022/01/03 05:16:39;;;;;;;4.00;1.80;;;12.00;99.90;;;;;;5015340;28;20240;-57
2022/01/03 05:19:05;;;;;;;4.67;2.03;;;12.00;99.90;;;;;;5010787;28;20239;-58
2022/01/03 05:21:30;;;;;;;10.67;3.10;;;12.00;99.90;;;;;;5007132;28;20189;-57
2022/01/03 05:23:56;;;;;;;6.90;2.27;;;12.10;99.90;;;;;;5011473;28;20200;-57
2022/01/03 05:26:21;;;;;;;11.13;2.70;;;12.10;99.90;;;;;;5013073;28;20219;-56
2022/01/03 05:28:47;;;;;;;6.93;2.27;;;12.10;99.90;;;;;;5011017;28;20200;-56
2022/01/03 05:31:13;;;;;;;9.23;2.80;;;12.10;99.90;;;;;;5009914;28;20268;-55
2022/01/03 05:33:40;;;;;;;5.43;1.93;;;12.10;99.90;;;;;;5008053;28;20212;-55
2022/01/03 05:36:06;;;;;;;10.23;2.60;;;12.10;99.90;;;;;;5008776;28;20463;-56
2022/01/03 05:38:32;;;;;;;9.90;2.07;;;12.20;99.90;;;;;;5012120;28;20860;-56
2022/01/03 05:40:57;;;;;;;8.17;2.10;;;12.10;99.90;;;;;;5012954;28;20432;-57
2022/01/03 05:43:23;;;;;;;6.63;2.20;;;12.10;99.90;;;;;;5007905;28;20296;-56
2022/01/03 05:45:49;;;;;;;7.37;2.10;;;12.10;99.90;;;;;;5016820;28;20220;-57
2022/01/03 05:48:14;;;;;;;10.57;3.50;;;12.10;99.90;;;;;;5018124;28;20200;-53
2022/01/03 05:50:43;;;;;;;5.23;1.87;;;12.00;99.90;;;;;;5014637;28;20203;-56
2022/01/03 05:53:08;;;;;;;6.30;2.20;;;12.00;99.90;;;;;;5013076;28;20209;-54
2022/01/03 05:55:34;;;;;;;7.33;2.77;;;12.00;99.90;;;;;;5013786;28;20460;-57
2022/01/03 05:58:00;;;;;;;11.43;2.47;;;12.00;99.90;;;;;;5011383;28;20184;-55
2022/01/03 06:00:26;;;;;;;4.23;2.00;;;12.00;99.90;;;;;;5013752;28;20196;-54
2022/01/03 06:02:56;;;;;;;13.90;3.27;;;12.00;99.90;;;;;;5015332;28;20200;-56
2022/01/03 06:06:53;;;;;;;10.70;2.73;;;11.90;99.90;;;;;;5010448;28;20538;-55
2022/01/03 06:08:17;;;;;;;7.13;3.00;;;11.90;99.90;;;;;;5010806;28;20451;-57
2022/01/03 06:10:42;;;;;;;4.53;2.10;;;12.00;99.90;;;;;;5011529;28;20466;-56
2022/01/03 06:13:08;;;;;;;3.63;2.10;;;11.90;99.90;;;;;;5013225;28;20177;-56
2022/01/03 06:15:37;;;;;;;5.90;2.30;;;12.00;99.90;;;;;;5011301;28;20217;-55
2022/01/03 06:18:04;;;;;;;6.67;2.40;;;12.00;99.90;;;;;;5018085;28;20184;-57
2022/01/03 06:20:31;;;;;;;6.30;2.10;;;12.00;99.90;;;;;;5016591;28;20511;-55
2022/01/03 06:22:56;;;;;;;5.63;2.53;;;12.00;99.90;;;;;;5015697;28;20449;-54
2022/01/03 06:25:22;;;;;;;6.23;2.43;;;12.00;99.90;;;;;;5017857;28;20479;-55
2022/01/03 06:27:48;;;;;;;8.77;2.07;;;12.00;99.90;;;;;;5014175;28;20188;-57
2022/01/03 06:30:13;;;;;;;10.17;3.20;;;12.00;99.90;;;;;;5013636;28;20783;-58
2022/01/03 06:32:39;;;;;;;8.60;2.90;;;12.00;99.90;;;;;;5013582;28;20189;-58
2022/01/03 06:35:05;;;;;;;6.47;2.97;;;12.00;99.90;;;;;;5012411;28;20225;-55
2022/01/03 06:37:31;;;;;;;4.60;2.30;;;12.00;99.90;;;;;;5016792;28;20187;-54
2022/01/03 06:39:57;;;;;;;9.20;2.10;;;12.10;99.90;;;;;;5011371;28;20447;-54
2022/01/03 06:42:22;;;;;;;9.97;2.70;;;12.10;99.90;;;;;;5011258;28;20195;-55
2022/01/03 06:44:48;;;;;;;12.00;3.60;;;12.10;99.90;;;;;;5014748;28;20220;-56
2022/01/03 06:47:15;;;;;;;5.50;2.30;;;12.10;99.90;;;;;;5011633;28;20207;-56
2022/01/03 06:49:41;;;;;;;7.03;2.23;;;12.20;99.90;;;;;;5015587;28;20443;-56
2022/01/03 06:52:06;;;;;;;6.10;1.97;;;12.10;99.90;;;;;;5016064;28;20549;-57
2022/01/03 06:54:33;;;;;;;6.63;2.20;;;12.20;99.90;;;;;;5009869;28;20865;-56
2022/01/03 06:57:00;;;;;;;8.17;1.80;;;12.20;99.90;;;;;;5010381;28;20181;-56
2022/01/03 06:59:25;;;;;;;6.73;2.13;;;12.20;99.90;;;;;;5011201;28;20475;-56
2022/01/03 07:01:51;;;;;;;3.07;1.93;;;12.10;99.90;;;;;;5006777;28;20435;-56
2022/01/03 07:04:17;;;;;;;7.97;2.30;;;12.20;99.90;;;;;;5013024;28;20235;-57
2022/01/03 07:06:42;;;;;;;5.20;1.90;;;12.20;99.90;;;;;;5017059;28;20184;-57
2022/01/03 07:09:08;;;;;;;6.23;2.10;;;12.20;99.90;;;;;;5010760;28;20201;-57
2022/01/03 07:11:35;;;;;;;10.70;3.53;;;12.20;99.90;;;;;;5016048;28;20184;-57
2022/01/03 07:18:56;;;;;;;11.50;2.57;;;12.20;99.90;;;;;;5016333;28;20866;-55
2022/01/03 07:19:58;;;;;;;7.87;2.37;;;12.20;99.90;;;;;;5015497;28;20955;-55
2022/01/03 07:22:24;;;;;;;7.03;2.07;;;12.10;99.90;;;;;;5009198;28;20450;-58
2022/01/03 07:24:52;;;;;;;9.93;2.60;;;12.10;99.90;;;;;;5017940;28;20837;-57
2022/01/03 07:27:18;;;;;;;4.80;1.70;;;12.20;99.90;;;;;;5007547;28;20759;-58
2022/01/03 07:29:46;;;;;;;9.23;2.13;;;12.10;99.90;;;;;;5008838;28;20526;-55
2022/01/03 07:32:12;;;;;;;9.83;2.20;;;12.20;99.90;;;;;;4997868;28;20743;-57
2022/01/03 07:34:37;;;;;;;11.33;2.10;;;12.10;99.90;;;;;;5015377;28;21459;-57
2022/01/03 07:37:03;;;;;;;13.67;2.47;;;12.10;99.90;;;;;;5008971;28;20198;-57
2022/01/03 07:39:30;;;;;;;10.37;2.60;;;12.00;99.90;;;;;;5009761;28;20181;-54
2022/01/03 07:41:57;;;;;;;14.70;2.83;;;12.00;99.90;;;;;;5006591;28;20572;-55
2022/01/03 07:44:23;;;;;;;8.00;2.57;;;11.90;99.90;;;;;;5014413;28;20454;-56
2022/01/03 07:46:49;;;;;;;10.00;2.57;;;11.80;99.90;;;;;;5015335;28;20538;-54
2022/01/03 07:49:15;;;;;;;11.30;3.43;;;11.80;99.90;;;;;;5012687;28;20185;-56
2022/01/03 07:51:41;;;;;;;10.63;2.57;;;11.90;99.90;;;;;;5010656;28;20454;-54
2022/01/03 07:54:06;;;;;;;6.40;2.40;;;11.90;99.90;;;;;;5010175;28;20212;-53
2022/01/03 07:56:33;;;;;;;4.60;2.23;;;11.90;99.90;;;;;;5012688;28;20205;-53
2022/01/03 07:58:59;;;;;;;10.10;2.50;;;11.80;99.90;;;;;;5007272;28;20737;-56
2022/01/03 08:01:26;;;;;;;5.07;2.30;;;11.80;99.90;;;;;;5012900;28;20446;-54
2022/01/03 08:03:51;;;;;;;8.00;2.00;;;11.80;99.90;;;;;;5012744;28;20458;-55
2022/01/03 08:06:20;;;;;;;5.60;2.20;;;11.80;99.90;;;;;;5006400;28;20582;-53
2022/01/03 08:08:45;;;;;;;14.33;2.90;;;11.80;99.90;;;;;;5011469;28;20915;-57
2022/01/03 08:11:11;;;;;;;9.63;2.53;;;11.80;99.90;;;;;;5011022;28;20845;-57
2022/01/03 08:13:36;;;;;;;7.60;3.10;;;11.80;99.90;;;;;;5007930;28;20299;-54
2022/01/03 08:16:02;;;;;;;10.70;2.77;;;11.70;99.90;;;;;;5007479;28;21415;-54
2022/01/03 08:18:28;;;;;;;10.97;2.83;;;11.70;99.90;;;;;;5014075;28;20279;-56
2022/01/03 08:20:56;;;;;;;14.30;2.73;;;11.70;99.90;;;;;;5015199;28;21051;-55
2022/01/03 08:23:22;;;;;;;11.00;2.27;;;11.60;99.90;;;;;;5012461;28;20219;-56
2022/01/03 08:25:47;;;;;;;9.90;2.63;;;11.70;99.90;;;;;;5009905;28;20503;-57
2022/01/03 08:28:14;;;;;;;7.30;2.60;;;11.70;99.90;;;;;;5003959;28;20288;-54
2022/01/03 08:30:40;;;;;;;6.57;2.30;;;11.80;99.90;;;;;;5004166;28;20646;-54
2022/01/03 08:33:05;;;;;;;6.00;2.30;;;11.80;99.90;;;;;;5006231;28;20452;-56
2022/01/03 08:35:32;;;;;;;5.97;2.20;;;11.80;99.90;;;;;;5005835;28;20209;-57
2022/01/03 08:37:58;;;;;;;13.10;2.40;;;11.90;99.90;;;;;;5015894;28;20547;-55
2022/01/03 08:40:25;;;;;;;5.30;3.07;;;11.90;99.90;;;;;;5010242;28;20443;-52
2022/01/03 08:42:51;;;;;;;12.13;4.33;;;12.00;99.90;;;;;;5011338;28;20435;-57
2022/01/03 08:45:18;;;;;;;5.00;2.53;;;12.00;99.90;;;;;;5008637;28;20738;-55
2022/01/03 08:47:44;;;;;;;8.30;2.90;;;12.00;99.90;;;;;;5014592;28;20832;-57
2022/01/03 08:50:11;;;;;;;9.30;3.17;;;12.00;99.90;;;;;;5011247;28;20815;-55
2022/01/03 08:52:36;;;;;;;4.77;2.43;;;12.10;99.90;;;;;;5012410;28;20453;-55
2022/01/03 08:55:04;;;;;;;7.43;2.17;;;12.10;99.90;;;;;;5015526;28;20475;-55
2022/01/03 08:57:29;;;;;;;6.53;2.43;;;12.10;99.90;;;;;;5012762;28;20197;-57
2022/01/03 08:59:55;;;;;;;9.33;2.80;;;12.10;99.90;;;;;;5013991;28;20449;-55
2022/01/03 09:02:20;;;;;;;8.93;2.77;;;12.10;99.90;;;;;;5013673;28;20227;-57
2022/01/03 09:04:46;;;;;;;7.67;2.40;;;12.20;99.90;;;;;;5010301;28;20703;-57
2022/01/03 09:07:13;;;;;;;3.93;2.13;;;12.30;99.90;;;;;;5016924;28;20228;-57
2022/01/03 09:09:39;;;;;;;5.80;2.60;;;12.30;99.90;;;;;;5014909;28;20470;-57
2022/01/03 09:12:08;;;;;;;6.60;2.20;;;12.40;99.90;;;;;;5012944;28;20833;-57
2022/01/03 09:14:35;;;;;;;8.50;2.50;;;12.30;99.90;;;;;;5014250;28;20475;-57
2022/01/03 09:17:01;;;;;;;5.83;2.77;;;12.30;99.90;;;;;;5016410;28;20508;-57
2022/01/03 09:19:27;;;;;;;7.70;3.13;;;12.30;99.90;;;;;;5015676;28;20447;-56
2022/01/03 09:22:06;;;;;;;6.30;2.47;;;12.30;99.90;;;;;;5017898;28;20444;-58
2022/01/03 09:24:44;;;;;;;7.90;3.10;;;12.30;99.90;;;;;;5018894;28;20823;-58
2022/01/03 09:29:57;;;;;;;5.80;2.00;;;12.30;99.90;;;;;;5012677;28;20486;-58
2022/01/03 09:32:23;;;;;;;13.40;3.03;;;12.20;99.90;;;;;;5016628;28;20455;-58
2022/01/03 09:34:48;;;;;;;17.70;4.30;;;12.20;99.90;;;;;;5015094;28;20980;-56
2022/01/03 09:37:19;;;;;;;3.37;1.80;;;12.20;99.90;;;;;;5017343;28;20197;-55
2022/01/03 09:39:46;;;;;;;7.67;2.70;;;12.30;99.90;;;;;;5016458;28;20226;-57
2022/01/03 09:42:14;;;;;;;5.80;2.30;;;12.30;99.90;;;;;;5013624;28;20459;-58
2022/01/03 09:44:41;;;;;;;6.37;2.90;;;12.40;99.90;;;;;;5014557;28;20488;-55
2022/01/03 09:47:10;;;;;;;7.20;2.20;;;12.30;99.90;;;;;;5011394;28;20523;-56
2022/01/03 09:49:38;;;;;;;5.77;2.13;;;12.40;99.90;;;;;;5009172;28;20456;-57
2022/01/03 09:52:07;;;;;;;4.53;2.30;;;12.40;99.90;;;;;;5013712;28;20435;-57
2022/01/03 09:54:34;;;;;;;6.70;2.43;;;12.40;99.90;;;;;;5008230;28;20470;-55
2022/01/03 09:57:01;;;;;;;6.80;2.30;;;12.40;99.90;;;;;;5016274;28;20443;-52
2022/01/03 09:59:28;;;;;;;7.00;2.00;;;12.40;99.90;;;;;;5011062;28;20863;-56
2022/01/03 10:01:56;;;;;;;5.37;1.73;;;12.40;99.90;;;;;;5012095;28;20811;-55
2022/01/03 10:04:22;;;;;;;10.17;2.30;;;12.50;99.90;;;;;;5010621;28;20450;-58
2022/01/03 10:06:48;;;;;;;5.83;2.43;;;12.50;99.90;;;;;;5013170;28;20562;-57
2022/01/03 10:09:14;;;;;;;8.47;2.40;;;12.50;99.90;;;;;;5015911;28;20563;-54
2022/01/03 10:11:40;;;;;;;5.77;2.20;;;12.50;99.90;;;;;;5010278;28;20193;-57
2022/01/03 10:14:06;;;;;;;4.83;2.20;;;12.50;99.90;;;;;;5013217;28;20999;-56
2022/01/03 10:16:31;;;;;;;7.50;2.40;;;12.60;99.90;;;;;;5013153;28;20455;-57
2022/01/03 10:18:58;;;;;;;5.13;2.30;;;12.50;99.90;;;;;;5015466;28;20393;-55
2022/01/03 10:21:45;;;;;;;4.57;2.70;;;12.50;99.90;;;;;;5012857;28;20771;-57
2022/01/03 10:24:13;;;;;;;8.50;2.20;;;12.60;99.90;;;;;;5013015;28;20550;-57
2022/01/03 10:26:42;;;;;;;6.23;2.57;;;12.60;99.90;;;;;;5015796;28;20479;-52
2022/01/03 10:29:22;;;;;;;5.50;1.73;;;12.60;99.90;;;;;;5016642;28;20458;-57
2022/01/03 10:31:53;;;;;;;7.87;2.57;;;12.60;99.90;;;;;;5001446;28;20787;-56
2022/01/03 10:34:21;;;;;;;5.93;2.57;;;12.60;99.90;;;;;;5009304;28;20472;-55
2022/01/03 10:36:48;;;;;;;8.20;2.40;;;12.60;99.90;;;;;;5006966;28;20817;-56
2022/01/03 10:39:30;;;;;;;5.17;2.47;;;12.60;99.90;;;;;;5017809;28;20845;-54
2022/01/03 10:42:12;;;;;;;6.20;1.77;;;12.70;99.90;;;;;;5014627;28;20434;-55
2022/01/03 10:44:42;;;;;;;6.00;2.50;;;12.60;99.90;;;;;;5008524;28;20897;-53
2022/01/03 10:47:10;;;;;;;6.20;2.77;;;12.70;99.90;;;;;;5011295;28;20973;-55
2022/01/03 10:49:38;;;;;;;5.23;2.27;;;12.70;99.90;;;;;;5018708;28;20840;-55
2022/01/03 10:52:19;;;;;;;4.00;2.00;;;12.70;99.90;;;;;;5009783;28;20440;-56
2022/01/03 10:55:09;;;;;;;5.50;2.50;;;12.80;99.90;;;;;;5017332;28;20475;-56
2022/01/03 10:57:59;;;;;;;7.37;1.80;;;12.80;99.90;;;;;;5011671;28;20817;-58
2022/01/03 11:00:28;;;;;;;8.10;2.60;;;12.80;99.90;;;;;;5003831;28;20530;-56
2022/01/03 11:03:40;;;;;;;8.57;2.60;;;12.80;99.90;;;;;;5015722;28;20491;-58
2022/01/03 11:06:21;;;;;;;5.93;2.00;;;12.80;99.90;;;;;;5018176;28;20467;-58
2022/01/03 11:11:38;;;;;;;5.70;1.97;;;12.80;99.90;;;;;;5017919;28;20506;-57
2022/01/03 11:14:04;;;;;;;5.37;2.67;;;12.80;99.90;;;;;;5021607;28;20505;-54
2022/01/03 11:16:39;;;;;;;4.43;2.67;;;12.80;99.90;;;;;;5016865;28;20451;-54
2022/01/03 11:19:06;;;;;;;4.17;2.03;;;12.70;99.90;;;;;;5018370;28;20430;-56
2022/01/03 11:21:33;;;;;;;7.43;2.60;;;12.80;99.90;;;;;;5015681;28;20443;-56
2022/01/03 11:23:59;;;;;;;10.13;2.63;;;12.80;99.90;;;;;;5017869;28;20435;-55
2022/01/03 11:26:26;;;;;;;5.97;2.77;;;12.80;99.90;;;;;;5016773;28;20451;-59
2022/01/03 11:28:52;;;;;;;6.33;2.47;;;12.80;99.90;;;;;;5015554;28;20189;-57
2022/01/03 11:31:20;;;;;;;7.33;2.43;;;12.80;99.90;;;;;;5016011;28;20481;-58
2022/01/03 11:33:47;;;;;;;2.67;2.07;;;12.80;99.90;;;;;;5020017;28;20459;-58
2022/01/03 11:36:15;;;;;;;8.00;2.27;;;12.80;99.90;;;;;;5018124;28;20483;-59
2022/01/03 11:38:41;;;;;;;5.97;2.37;;;12.80;99.90;;;;;;5014007;28;20443;-58
2022/01/03 11:41:09;;;;;;;8.73;2.50;;;12.80;99.90;;;;;;5008597;28;20423;-57
2022/01/03 11:43:40;;;;;;;5.70;2.27;;;12.80;99.90;;;;;;5020646;28;20255;-57
2022/01/03 11:46:06;;;;;;;4.57;2.17;;;12.80;99.90;;;;;;5020371;28;20448;-57
2022/01/03 11:48:32;;;;;;;3.23;2.27;;;12.80;99.90;;;;;;5018844;28;20447;-60
2022/01/03 11:51:03;;;;;;;4.33;2.50;;;12.80;99.90;;;;;;5020453;28;20437;-53
2022/01/03 11:53:30;;;;;;;9.23;2.37;;;12.80;99.90;;;;;;5014434;28;20467;-57
2022/01/03 11:55:58;;;;;;;4.70;2.20;;;12.80;99.90;;;;;;5010962;28;20459;-57
2022/01/03 12:03:58;;;;;;;5.70;2.33;;;13.00;99.90;;;;;;5015348;28;20467;-60
2022/01/03 12:06:32;;;;;;;6.27;2.00;;;13.00;99.90;;;;;;5017822;28;20538;-59
2022/01/03 12:09:00;;;;;;;2.73;2.20;;;13.10;99.90;;;;;;5014280;28;20438;-59
2022/01/03 12:11:27;;;;;;;5.13;2.00;;;13.10;99.90;;;;;;5014711;28;20930;-59
2022/01/03 12:14:11;;;;;;;3.47;2.20;;;13.10;99.90;;;;;;5013120;28;20501;-59
2022/01/03 12:16:43;;;;;;;6.33;2.50;;;13.10;99.90;;;;;;5012927;28;20849;-59
2022/01/03 12:19:12;;;;;;;5.00;2.40;;;13.20;99.90;;;;;;5015176;28;20499;-59
2022/01/03 12:21:48;;;;;;;6.33;2.50;;;13.20;99.90;;;;;;5012676;28;20415;-59
2022/01/03 12:24:29;;;;;;;4.37;2.40;;;13.20;99.90;;;;;;5010928;28;20440;-59
2022/01/03 12:27:10;;;;;;;10.93;2.63;;;13.20;99.90;;;;;;5014203;28;20439;-60
2022/01/03 12:29:54;;;;;;;10.47;2.43;;;13.20;99.90;;;;;;5015902;28;20415;-59
2022/01/03 12:32:36;;;;;;;8.30;2.90;;;13.10;99.90;;;;;;5016764;28;20802;-59
2022/01/03 12:37:35;;;;;;;5.17;2.20;;;13.20;99.90;;;;;;5018010;28;20419;-59
2022/01/03 12:40:03;;;;;;;7.73;2.43;;;13.30;99.90;;;;;;5011925;28;20440;-59
2022/01/03 12:45:15;;;;;;;3.80;2.37;;;13.20;99.90;;;;;;5020470;28;20503;-59
2022/01/03 12:47:41;;;;;;;6.53;2.70;;;13.10;99.90;;;;;;5020680;28;20808;-59
2022/01/03 12:50:28;;;;;;;8.57;2.50;;;13.10;99.90;;;;;;5020896;28;20427;-59
2022/01/03 12:52:57;;;;;;;6.57;2.50;;;13.10;99.90;;;;;;5021075;28;20443;-59
2022/01/03 12:55:37;;;;;;;7.70;2.10;;;13.20;99.90;;;;;;5021660;28;20553;-60
2022/01/03 12:58:16;;;;;;;8.60;2.77;;;13.10;99.90;;;;;;5017864;28;20851;-59
2022/01/03 13:00:46;;;;;;;3.87;2.50;;;13.10;99.90;;;;;;5024576;28;20606;-59
2022/01/03 13:03:40;;;;;;;9.50;2.47;;;13.10;99.90;;;;;;5018166;28;20474;-59
2022/01/03 13:06:05;;;;;;;6.90;2.03;;;13.20;99.90;;;;;;5009800;28;20491;-59
2022/01/03 13:08:47;;;;;;;4.70;2.10;;;13.20;99.90;;;;;;5022963;28;20461;-59
2022/01/03 13:11:33;;;;;;;2.57;1.87;;;13.20;99.90;;;;;;5016026;28;20180;-59
2022/01/03 13:14:19;;;;;;;4.07;2.03;;;13.30;99.90;;;;;;5013536;28;20836;-59